sensor_id;sensor_type;location;lat;lon;timestamp;P1;durP1;ratioP1;P2;durP2;ratioP2
80381;SDS011;69692;55.820;37.490;2024-03-07T00:00:05;15.93;;;4.55;;
80381;SDS011;69692;55.820;37.490;2024-03-07T00:02:41;13.82;;;5.50;;
80381;SDS011;69692;55.820;37.490;2024-03-07T00:05:08;12.93;;;5.43;;
80381;SDS011;69692;55.820;37.490;2024-03-07T00:07:34;10.82;;;5.13;;
80381;SDS011;69692;55.820;37.490;2024-03-07T00:10:00;12.73;;;5.35;;
80381;SDS011;69692;55.820;37.490;2024-03-07T00:12:30;14.50;;;6.00;;
80381;SDS011;69692;55.820;37.490;2024-03-07T00:14:57;17.00;;;5.72;;
80381;SDS011;69692;55.820;37.490;2024-03-07T00:17:23;12.70;;;5.72;;
80381;SDS011;69692;55.820;37.490;2024-03-07T00:19:49;13.52;;;5.85;;
80381;SDS011;69692;55.820;37.490;2024-03-07T00:22:15;14.65;;;6.10;;
80381;SDS011;69692;55.820;37.490;2024-03-07T00:24:41;13.52;;;5.38;;
80381;SDS011;69692;55.820;37.490;2024-03-07T00:27:10;12.13;;;6.88;;
80381;SDS011;69692;55.820;37.490;2024-03-07T00:29:36;14.50;;;5.35;;
80381;SDS011;69692;55.820;37.490;2024-03-07T00:32:04;12.48;;;6.10;;
80381;SDS011;69692;55.820;37.490;2024-03-07T00:34:29;11.43;;;5.53;;
80381;SDS011;69692;55.820;37.490;2024-03-07T00:36:55;10.60;;;5.38;;
80381;SDS011;69692;55.820;37.490;2024-03-07T00:39:25;13.38;;;5.43;;
80381;SDS011;69692;55.820;37.490;2024-03-07T00:41:51;11.13;;;5.22;;
80381;SDS011;69692;55.820;37.490;2024-03-07T00:44:17;15.65;;;6.38;;
80381;SDS011;69692;55.820;37.490;2024-03-07T00:46:43;10.55;;;5.88;;
80381;SDS011;69692;55.820;37.490;2024-03-07T00:49:09;12.82;;;5.82;;
80381;SDS011;69692;55.820;37.490;2024-03-07T00:51:35;12.57;;;4.38;;
80381;SDS011;69692;55.820;37.490;2024-03-07T00:54:01;13.85;;;5.85;;
80381;SDS011;69692;55.820;37.490;2024-03-07T00:56:27;11.82;;;5.07;;
80381;SDS011;69692;55.820;37.490;2024-03-07T00:58:54;12.05;;;4.55;;
80381;SDS011;69692;55.820;37.490;2024-03-07T01:01:20;14.18;;;5.32;;
80381;SDS011;69692;55.820;37.490;2024-03-07T01:03:46;10.32;;;5.10;;
80381;SDS011;69692;55.820;37.490;2024-03-07T01:06:12;10.40;;;4.55;;
80381;SDS011;69692;55.820;37.490;2024-03-07T01:08:38;11.23;;;5.40;;
80381;SDS011;69692;55.820;37.490;2024-03-07T01:11:05;15.38;;;5.85;;
80381;SDS011;69692;55.820;37.490;2024-03-07T01:13:38;14.85;;;4.95;;
80381;SDS011;69692;55.820;37.490;2024-03-07T01:16:04;13.23;;;4.47;;
80381;SDS011;69692;55.820;37.490;2024-03-07T01:18:31;9.90;;;4.22;;
80381;SDS011;69692;55.820;37.490;2024-03-07T01:21:01;12.70;;;4.50;;
80381;SDS011;69692;55.820;37.490;2024-03-07T01:23:28;8.40;;;4.25;;
80381;SDS011;69692;55.820;37.490;2024-03-07T01:25:58;12.45;;;4.80;;
80381;SDS011;69692;55.820;37.490;2024-03-07T01:28:25;10.73;;;4.72;;
80381;SDS011;69692;55.820;37.490;2024-03-07T01:30:56;9.15;;;3.83;;
80381;SDS011;69692;55.820;37.490;2024-03-07T01:33:23;9.30;;;4.20;;
80381;SDS011;69692;55.820;37.490;2024-03-07T01:35:50;10.73;;;3.90;;
80381;SDS011;69692;55.820;37.490;2024-03-07T01:38:17;10.63;;;4.35;;
80381;SDS011;69692;55.820;37.490;2024-03-07T01:40:43;9.10;;;4.05;;
80381;SDS011;69692;55.820;37.490;2024-03-07T01:43:10;8.25;;;4.70;;
80381;SDS011;69692;55.820;37.490;2024-03-07T01:45:37;11.57;;;3.92;;
80381;SDS011;69692;55.820;37.490;2024-03-07T01:48:08;6.90;;;4.15;;
80381;SDS011;69692;55.820;37.490;2024-03-07T01:50:35;8.52;;;4.25;;
80381;SDS011;69692;55.820;37.490;2024-03-07T01:53:04;5.78;;;3.17;;
80381;SDS011;69692;55.820;37.490;2024-03-07T01:55:32;7.35;;;3.15;;
80381;SDS011;69692;55.820;37.490;2024-03-07T01:57:59;13.90;;;4.07;;
80381;SDS011;69692;55.820;37.490;2024-03-07T02:00:27;6.65;;;2.97;;
80381;SDS011;69692;55.820;37.490;2024-03-07T02:02:53;9.10;;;2.83;;
80381;SDS011;69692;55.820;37.490;2024-03-07T02:05:22;7.10;;;4.20;;
80381;SDS011;69692;55.820;37.490;2024-03-07T02:07:49;5.22;;;2.80;;
80381;SDS011;69692;55.820;37.490;2024-03-07T02:10:15;5.78;;;3.50;;
80381;SDS011;69692;55.820;37.490;2024-03-07T02:12:44;8.13;;;3.55;;
80381;SDS011;69692;55.820;37.490;2024-03-07T02:15:13;7.32;;;3.95;;
80381;SDS011;69692;55.820;37.490;2024-03-07T02:17:39;8.05;;;4.00;;
80381;SDS011;69692;55.820;37.490;2024-03-07T02:20:06;5.13;;;3.40;;
80381;SDS011;69692;55.820;37.490;2024-03-07T02:22:33;6.70;;;3.28;;
80381;SDS011;69692;55.820;37.490;2024-03-07T02:24:59;6.68;;;3.40;;
80381;SDS011;69692;55.820;37.490;2024-03-07T02:27:25;8.38;;;3.97;;
80381;SDS011;69692;55.820;37.490;2024-03-07T02:29:51;7.78;;;3.90;;
80381;SDS011;69692;55.820;37.490;2024-03-07T02:32:17;9.30;;;3.90;;
80381;SDS011;69692;55.820;37.490;2024-03-07T02:34:43;8.25;;;3.88;;
80381;SDS011;69692;55.820;37.490;2024-03-07T02:37:09;11.55;;;3.88;;
80381;SDS011;69692;55.820;37.490;2024-03-07T02:39:38;7.38;;;4.10;;
80381;SDS011;69692;55.820;37.490;2024-03-07T02:42:04;6.55;;;3.45;;
80381;SDS011;69692;55.820;37.490;2024-03-07T02:44:30;8.88;;;4.00;;
80381;SDS011;69692;55.820;37.490;2024-03-07T02:46:57;9.32;;;3.92;;
80381;SDS011;69692;55.820;37.490;2024-03-07T02:49:23;7.35;;;3.58;;
80381;SDS011;69692;55.820;37.490;2024-03-07T02:51:49;8.15;;;4.07;;
80381;SDS011;69692;55.820;37.490;2024-03-07T02:54:15;7.40;;;4.30;;
80381;SDS011;69692;55.820;37.490;2024-03-07T02:56:41;9.18;;;3.50;;
80381;SDS011;69692;55.820;37.490;2024-03-07T02:59:07;4.35;;;3.00;;
80381;SDS011;69692;55.820;37.490;2024-03-07T03:01:33;8.73;;;3.42;;
80381;SDS011;69692;55.820;37.490;2024-03-07T03:03:59;5.38;;;2.92;;
80381;SDS011;69692;55.820;37.490;2024-03-07T03:06:24;7.35;;;3.90;;
80381;SDS011;69692;55.820;37.490;2024-03-07T03:08:50;6.85;;;3.50;;
80381;SDS011;69692;55.820;37.490;2024-03-07T03:11:17;7.70;;;2.92;;
80381;SDS011;69692;55.820;37.490;2024-03-07T03:13:43;8.23;;;3.38;;
80381;SDS011;69692;55.820;37.490;2024-03-07T03:16:12;5.88;;;3.00;;
80381;SDS011;69692;55.820;37.490;2024-03-07T03:18:39;7.55;;;3.45;;
80381;SDS011;69692;55.820;37.490;2024-03-07T03:21:05;7.82;;;3.10;;
80381;SDS011;69692;55.820;37.490;2024-03-07T03:23:31;7.30;;;3.55;;
80381;SDS011;69692;55.820;37.490;2024-03-07T03:25:57;5.97;;;3.22;;
80381;SDS011;69692;55.820;37.490;2024-03-07T03:28:23;7.90;;;3.13;;
80381;SDS011;69692;55.820;37.490;2024-03-07T03:30:49;7.65;;;3.08;;
80381;SDS011;69692;55.820;37.490;2024-03-07T03:33:18;6.15;;;4.20;;
80381;SDS011;69692;55.820;37.490;2024-03-07T03:35:46;10.43;;;4.50;;
80381;SDS011;69692;55.820;37.490;2024-03-07T03:38:13;9.50;;;4.18;;
80381;SDS011;69692;55.820;37.490;2024-03-07T03:40:39;7.65;;;3.80;;
80381;SDS011;69692;55.820;37.490;2024-03-07T03:43:05;18.25;;;4.55;;
80381;SDS011;69692;55.820;37.490;2024-03-07T03:45:31;5.93;;;3.67;;
80381;SDS011;69692;55.820;37.490;2024-03-07T03:47:59;9.85;;;3.67;;
80381;SDS011;69692;55.820;37.490;2024-03-07T03:50:25;8.32;;;3.63;;
80381;SDS011;69692;55.820;37.490;2024-03-07T03:52:52;7.72;;;3.80;;
80381;SDS011;69692;55.820;37.490;2024-03-07T03:55:18;7.75;;;3.83;;
80381;SDS011;69692;55.820;37.490;2024-03-07T03:57:45;7.90;;;3.67;;
80381;SDS011;69692;55.820;37.490;2024-03-07T04:00:14;5.63;;;3.78;;
80381;SDS011;69692;55.820;37.490;2024-03-07T04:02:42;12.40;;;4.05;;
80381;SDS011;69692;55.820;37.490;2024-03-07T04:05:10;9.05;;;3.78;;
80381;SDS011;69692;55.820;37.490;2024-03-07T04:07:37;8.85;;;3.50;;
80381;SDS011;69692;55.820;37.490;2024-03-07T04:10:03;10.02;;;3.70;;
80381;SDS011;69692;55.820;37.490;2024-03-07T04:12:38;7.68;;;3.75;;
80381;SDS011;69692;55.820;37.490;2024-03-07T04:15:13;7.35;;;3.83;;
80381;SDS011;69692;55.820;37.490;2024-03-07T04:17:43;5.35;;;3.35;;
80381;SDS011;69692;55.820;37.490;2024-03-07T04:20:11;18.08;;;4.13;;
80381;SDS011;69692;55.820;37.490;2024-03-07T04:22:39;9.93;;;4.20;;
80381;SDS011;69692;55.820;37.490;2024-03-07T04:25:05;6.85;;;3.53;;
80381;SDS011;69692;55.820;37.490;2024-03-07T04:27:33;6.63;;;4.63;;
80381;SDS011;69692;55.820;37.490;2024-03-07T04:30:03;6.55;;;3.22;;
80381;SDS011;69692;55.820;37.490;2024-03-07T04:32:31;8.88;;;3.70;;
80381;SDS011;69692;55.820;37.490;2024-03-07T04:34:57;10.23;;;4.07;;
80381;SDS011;69692;55.820;37.490;2024-03-07T04:37:23;5.55;;;3.55;;
80381;SDS011;69692;55.820;37.490;2024-03-07T04:39:49;10.68;;;3.17;;
80381;SDS011;69692;55.820;37.490;2024-03-07T04:42:15;7.78;;;3.67;;
80381;SDS011;69692;55.820;37.490;2024-03-07T04:44:41;6.43;;;3.38;;
80381;SDS011;69692;55.820;37.490;2024-03-07T04:47:07;7.47;;;3.33;;
80381;SDS011;69692;55.820;37.490;2024-03-07T04:49:34;6.97;;;3.92;;
80381;SDS011;69692;55.820;37.490;2024-03-07T04:52:01;7.22;;;3.03;;
80381;SDS011;69692;55.820;37.490;2024-03-07T04:54:29;8.50;;;3.60;;
80381;SDS011;69692;55.820;37.490;2024-03-07T04:56:57;9.13;;;3.92;;
80381;SDS011;69692;55.820;37.490;2024-03-07T04:59:22;8.07;;;3.75;;
80381;SDS011;69692;55.820;37.490;2024-03-07T05:01:49;7.18;;;4.18;;
80381;SDS011;69692;55.820;37.490;2024-03-07T05:04:16;7.47;;;3.53;;
80381;SDS011;69692;55.820;37.490;2024-03-07T05:06:42;7.82;;;4.10;;
80381;SDS011;69692;55.820;37.490;2024-03-07T05:09:10;10.32;;;3.88;;
80381;SDS011;69692;55.820;37.490;2024-03-07T05:11:49;6.20;;;4.00;;
80381;SDS011;69692;55.820;37.490;2024-03-07T05:14:19;7.35;;;3.90;;
80381;SDS011;69692;55.820;37.490;2024-03-07T05:16:47;8.18;;;4.07;;
80381;SDS011;69692;55.820;37.490;2024-03-07T05:19:34;12.48;;;4.53;;
80381;SDS011;69692;55.820;37.490;2024-03-07T05:22:01;8.05;;;4.03;;
80381;SDS011;69692;55.820;37.490;2024-03-07T05:24:30;9.45;;;4.25;;
80381;SDS011;69692;55.820;37.490;2024-03-07T05:26:58;13.77;;;4.93;;
80381;SDS011;69692;55.820;37.490;2024-03-07T05:29:24;10.63;;;4.45;;
80381;SDS011;69692;55.820;37.490;2024-03-07T05:31:50;8.75;;;4.43;;
80381;SDS011;69692;55.820;37.490;2024-03-07T05:34:16;14.80;;;4.68;;
80381;SDS011;69692;55.820;37.490;2024-03-07T05:36:45;10.13;;;5.65;;
80381;SDS011;69692;55.820;37.490;2024-03-07T05:39:12;11.77;;;4.63;;
80381;SDS011;69692;55.820;37.490;2024-03-07T05:41:40;15.85;;;4.93;;
80381;SDS011;69692;55.820;37.490;2024-03-07T05:44:08;8.35;;;4.47;;
80381;SDS011;69692;55.820;37.490;2024-03-07T05:46:37;10.50;;;4.53;;
80381;SDS011;69692;55.820;37.490;2024-03-07T05:49:11;8.18;;;3.67;;
80381;SDS011;69692;55.820;37.490;2024-03-07T05:51:38;11.52;;;4.45;;
80381;SDS011;69692;55.820;37.490;2024-03-07T05:54:04;7.80;;;4.28;;
80381;SDS011;69692;55.820;37.490;2024-03-07T05:56:33;12.18;;;4.05;;
80381;SDS011;69692;55.820;37.490;2024-03-07T05:59:04;8.35;;;3.90;;
80381;SDS011;69692;55.820;37.490;2024-03-07T06:01:38;8.00;;;3.35;;
80381;SDS011;69692;55.820;37.490;2024-03-07T06:04:05;8.07;;;3.80;;
80381;SDS011;69692;55.820;37.490;2024-03-07T06:06:33;20.23;;;4.13;;
80381;SDS011;69692;55.820;37.490;2024-03-07T06:09:00;7.63;;;4.38;;
80381;SDS011;69692;55.820;37.490;2024-03-07T06:11:36;9.35;;;4.40;;
80381;SDS011;69692;55.820;37.490;2024-03-07T06:14:03;10.38;;;4.18;;
80381;SDS011;69692;55.820;37.490;2024-03-07T06:16:33;10.23;;;4.20;;
80381;SDS011;69692;55.820;37.490;2024-03-07T06:19:02;10.20;;;4.75;;
80381;SDS011;69692;55.820;37.490;2024-03-07T06:21:29;11.88;;;3.88;;
80381;SDS011;69692;55.820;37.490;2024-03-07T06:23:58;6.40;;;3.83;;
80381;SDS011;69692;55.820;37.490;2024-03-07T06:26:32;9.38;;;4.45;;
80381;SDS011;69692;55.820;37.490;2024-03-07T06:29:34;7.43;;;3.80;;
80381;SDS011;69692;55.820;37.490;2024-03-07T06:32:00;8.40;;;4.13;;
80381;SDS011;69692;55.820;37.490;2024-03-07T06:34:26;10.43;;;3.95;;
80381;SDS011;69692;55.820;37.490;2024-03-07T06:36:54;14.88;;;4.43;;
80381;SDS011;69692;55.820;37.490;2024-03-07T06:39:20;12.48;;;4.07;;
80381;SDS011;69692;55.820;37.490;2024-03-07T06:41:47;10.63;;;4.40;;
80381;SDS011;69692;55.820;37.490;2024-03-07T06:44:13;7.20;;;4.13;;
80381;SDS011;69692;55.820;37.490;2024-03-07T06:46:39;7.82;;;3.75;;
80381;SDS011;69692;55.820;37.490;2024-03-07T06:49:06;10.90;;;4.35;;
80381;SDS011;69692;55.820;37.490;2024-03-07T06:51:35;10.55;;;4.75;;
80381;SDS011;69692;55.820;37.490;2024-03-07T06:54:03;9.00;;;3.72;;
80381;SDS011;69692;55.820;37.490;2024-03-07T06:56:29;9.45;;;4.20;;
80381;SDS011;69692;55.820;37.490;2024-03-07T06:58:56;9.02;;;3.67;;
80381;SDS011;69692;55.820;37.490;2024-03-07T07:01:21;16.75;;;3.88;;
80381;SDS011;69692;55.820;37.490;2024-03-07T07:03:48;11.52;;;4.95;;
80381;SDS011;69692;55.820;37.490;2024-03-07T07:06:34;8.80;;;4.32;;
80381;SDS011;69692;55.820;37.490;2024-03-07T07:08:59;6.90;;;4.38;;
80381;SDS011;69692;55.820;37.490;2024-03-07T07:11:28;8.88;;;3.15;;
80381;SDS011;69692;55.820;37.490;2024-03-07T07:13:54;6.70;;;4.15;;
80381;SDS011;69692;55.820;37.490;2024-03-07T07:16:20;13.82;;;4.30;;
80381;SDS011;69692;55.820;37.490;2024-03-07T07:18:45;8.20;;;4.55;;
80381;SDS011;69692;55.820;37.490;2024-03-07T07:21:11;14.70;;;5.97;;
80381;SDS011;69692;55.820;37.490;2024-03-07T07:23:41;12.55;;;4.40;;
80381;SDS011;69692;55.820;37.490;2024-03-07T07:26:07;10.30;;;4.30;;
80381;SDS011;69692;55.820;37.490;2024-03-07T07:28:34;10.25;;;4.60;;
80381;SDS011;69692;55.820;37.490;2024-03-07T07:31:01;12.90;;;4.38;;
80381;SDS011;69692;55.820;37.490;2024-03-07T07:33:27;12.00;;;5.05;;
80381;SDS011;69692;55.820;37.490;2024-03-07T07:35:53;11.52;;;4.15;;
80381;SDS011;69692;55.820;37.490;2024-03-07T07:38:19;11.48;;;4.47;;
80381;SDS011;69692;55.820;37.490;2024-03-07T07:40:45;12.02;;;4.78;;
80381;SDS011;69692;55.820;37.490;2024-03-07T07:43:11;21.35;;;4.40;;
80381;SDS011;69692;55.820;37.490;2024-03-07T07:45:39;11.18;;;4.57;;
80381;SDS011;69692;55.820;37.490;2024-03-07T07:48:05;7.88;;;4.10;;
80381;SDS011;69692;55.820;37.490;2024-03-07T07:50:31;10.55;;;4.20;;
80381;SDS011;69692;55.820;37.490;2024-03-07T07:52:59;8.63;;;4.05;;
80381;SDS011;69692;55.820;37.490;2024-03-07T07:55:26;10.00;;;4.25;;
80381;SDS011;69692;55.820;37.490;2024-03-07T07:57:56;13.55;;;3.90;;
80381;SDS011;69692;55.820;37.490;2024-03-07T08:00:24;8.80;;;4.03;;
80381;SDS011;69692;55.820;37.490;2024-03-07T08:02:58;10.27;;;3.78;;
80381;SDS011;69692;55.820;37.490;2024-03-07T08:08:02;9.32;;;4.20;;
80381;SDS011;69692;55.820;37.490;2024-03-07T08:10:32;15.32;;;4.05;;
80381;SDS011;69692;55.820;37.490;2024-03-07T08:12:59;7.45;;;3.45;;
80381;SDS011;69692;55.820;37.490;2024-03-07T08:15:26;8.27;;;4.18;;
80381;SDS011;69692;55.820;37.490;2024-03-07T08:17:56;14.32;;;4.00;;
80381;SDS011;69692;55.820;37.490;2024-03-07T08:20:23;6.40;;;3.55;;
80381;SDS011;69692;55.820;37.490;2024-03-07T08:22:52;11.77;;;4.25;;
80381;SDS011;69692;55.820;37.490;2024-03-07T08:25:20;10.25;;;4.20;;
80381;SDS011;69692;55.820;37.490;2024-03-07T08:27:49;6.97;;;3.53;;
80381;SDS011;69692;55.820;37.490;2024-03-07T08:30:16;10.73;;;3.92;;
80381;SDS011;69692;55.820;37.490;2024-03-07T08:32:45;7.43;;;3.80;;
80381;SDS011;69692;55.820;37.490;2024-03-07T08:35:11;9.98;;;3.88;;
80381;SDS011;69692;55.820;37.490;2024-03-07T08:37:38;7.63;;;3.92;;
80381;SDS011;69692;55.820;37.490;2024-03-07T08:40:06;5.45;;;3.25;;
80381;SDS011;69692;55.820;37.490;2024-03-07T08:42:36;4.82;;;3.13;;
80381;SDS011;69692;55.820;37.490;2024-03-07T08:45:02;6.78;;;3.38;;
80381;SDS011;69692;55.820;37.490;2024-03-07T08:47:36;7.85;;;3.63;;
80381;SDS011;69692;55.820;37.490;2024-03-07T08:50:04;8.45;;;3.65;;
80381;SDS011;69692;55.820;37.490;2024-03-07T08:52:34;10.75;;;3.53;;
80381;SDS011;69692;55.820;37.490;2024-03-07T08:55:05;5.40;;;2.90;;
80381;SDS011;69692;55.820;37.490;2024-03-07T08:57:36;10.50;;;3.10;;
80381;SDS011;69692;55.820;37.490;2024-03-07T09:00:05;7.15;;;3.45;;
80381;SDS011;69692;55.820;37.490;2024-03-07T09:02:37;6.85;;;3.97;;
80381;SDS011;69692;55.820;37.490;2024-03-07T09:05:04;4.85;;;2.95;;
80381;SDS011;69692;55.820;37.490;2024-03-07T09:07:31;10.27;;;3.47;;
80381;SDS011;69692;55.820;37.490;2024-03-07T09:09:58;6.10;;;2.63;;
80381;SDS011;69692;55.820;37.490;2024-03-07T09:12:24;7.72;;;3.72;;
80381;SDS011;69692;55.820;37.490;2024-03-07T09:14:53;7.78;;;3.83;;
80381;SDS011;69692;55.820;37.490;2024-03-07T09:17:21;11.00;;;3.80;;
80381;SDS011;69692;55.820;37.490;2024-03-07T09:19:47;4.85;;;3.03;;
80381;SDS011;69692;55.820;37.490;2024-03-07T09:22:13;9.45;;;3.85;;
80381;SDS011;69692;55.820;37.490;2024-03-07T09:24:39;6.10;;;3.08;;
80381;SDS011;69692;55.820;37.490;2024-03-07T09:27:05;6.10;;;3.28;;
80381;SDS011;69692;55.820;37.490;2024-03-07T09:29:31;9.63;;;3.60;;
80381;SDS011;69692;55.820;37.490;2024-03-07T09:31:57;4.60;;;2.50;;
80381;SDS011;69692;55.820;37.490;2024-03-07T09:34:23;10.27;;;3.10;;
80381;SDS011;69692;55.820;37.490;2024-03-07T09:36:51;5.47;;;2.88;;
80381;SDS011;69692;55.820;37.490;2024-03-07T09:39:17;8.23;;;2.55;;
80381;SDS011;69692;55.820;37.490;2024-03-07T09:41:44;5.32;;;2.90;;
80381;SDS011;69692;55.820;37.490;2024-03-07T09:44:14;7.28;;;3.38;;
80381;SDS011;69692;55.820;37.490;2024-03-07T09:46:48;6.07;;;2.72;;
80381;SDS011;69692;55.820;37.490;2024-03-07T09:49:16;6.78;;;3.25;;
80381;SDS011;69692;55.820;37.490;2024-03-07T09:51:47;14.98;;;3.33;;
80381;SDS011;69692;55.820;37.490;2024-03-07T09:54:26;6.32;;;2.85;;
80381;SDS011;69692;55.820;37.490;2024-03-07T09:56:53;7.22;;;3.53;;
80381;SDS011;69692;55.820;37.490;2024-03-07T09:59:20;5.97;;;3.10;;
80381;SDS011;69692;55.820;37.490;2024-03-07T10:01:50;5.32;;;3.08;;
80381;SDS011;69692;55.820;37.490;2024-03-07T10:04:27;4.45;;;2.70;;
80381;SDS011;69692;55.820;37.490;2024-03-07T10:06:56;7.03;;;3.28;;
80381;SDS011;69692;55.820;37.490;2024-03-07T10:09:22;8.80;;;2.90;;
80381;SDS011;69692;55.820;37.490;2024-03-07T10:11:59;7.30;;;2.80;;
80381;SDS011;69692;55.820;37.490;2024-03-07T10:14:25;6.18;;;3.35;;
80381;SDS011;69692;55.820;37.490;2024-03-07T10:16:54;8.05;;;3.58;;
80381;SDS011;69692;55.820;37.490;2024-03-07T10:19:24;6.72;;;3.85;;
80381;SDS011;69692;55.820;37.490;2024-03-07T10:21:50;3.88;;;2.42;;
80381;SDS011;69692;55.820;37.490;2024-03-07T10:24:17;5.70;;;2.65;;
80381;SDS011;69692;55.820;37.490;2024-03-07T10:26:49;11.52;;;3.47;;
80381;SDS011;69692;55.820;37.490;2024-03-07T10:29:16;7.80;;;3.20;;
80381;SDS011;69692;55.820;37.490;2024-03-07T10:31:44;6.85;;;2.67;;
80381;SDS011;69692;55.820;37.490;2024-03-07T10:34:11;7.80;;;2.97;;
80381;SDS011;69692;55.820;37.490;2024-03-07T10:36:37;4.80;;;3.08;;
80381;SDS011;69692;55.820;37.490;2024-03-07T10:39:05;6.05;;;2.53;;
80381;SDS011;69692;55.820;37.490;2024-03-07T10:41:45;5.38;;;2.53;;
80381;SDS011;69692;55.820;37.490;2024-03-07T10:46:57;5.40;;;2.20;;
80381;SDS011;69692;55.820;37.490;2024-03-07T10:49:30;3.97;;;1.88;;
80381;SDS011;69692;55.820;37.490;2024-03-07T10:52:03;4.65;;;2.50;;
80381;SDS011;69692;55.820;37.490;2024-03-07T10:57:20;30.10;;;3.20;;
80381;SDS011;69692;55.820;37.490;2024-03-07T10:59:56;6.72;;;2.10;;
80381;SDS011;69692;55.820;37.490;2024-03-07T11:04:53;3.50;;;1.95;;
80381;SDS011;69692;55.820;37.490;2024-03-07T11:07:20;3.65;;;2.13;;
80381;SDS011;69692;55.820;37.490;2024-03-07T11:09:51;3.17;;;2.28;;
80381;SDS011;69692;55.820;37.490;2024-03-07T11:12:24;4.68;;;2.15;;
80381;SDS011;69692;55.820;37.490;2024-03-07T11:14:53;5.40;;;2.15;;
80381;SDS011;69692;55.820;37.490;2024-03-07T11:17:21;3.53;;;2.60;;
80381;SDS011;69692;55.820;37.490;2024-03-07T11:19:48;3.88;;;2.45;;
80381;SDS011;69692;55.820;37.490;2024-03-07T11:22:30;6.03;;;1.90;;
80381;SDS011;69692;55.820;37.490;2024-03-07T11:25:02;7.05;;;2.38;;
80381;SDS011;69692;55.820;37.490;2024-03-07T11:27:41;5.05;;;2.17;;
80381;SDS011;69692;55.820;37.490;2024-03-07T11:30:16;17.65;;;6.00;;
80381;SDS011;69692;55.820;37.490;2024-03-07T11:32:43;9.25;;;2.78;;
80381;SDS011;69692;55.820;37.490;2024-03-07T11:35:13;7.45;;;2.83;;
80381;SDS011;69692;55.820;37.490;2024-03-07T11:37:40;5.38;;;2.42;;
80381;SDS011;69692;55.820;37.490;2024-03-07T11:40:12;6.05;;;2.47;;
80381;SDS011;69692;55.820;37.490;2024-03-07T11:42:58;3.80;;;1.50;;
80381;SDS011;69692;55.820;37.490;2024-03-07T11:45:30;5.95;;;2.63;;
80381;SDS011;69692;55.820;37.490;2024-03-07T11:48:04;3.65;;;2.15;;
80381;SDS011;69692;55.820;37.490;2024-03-07T11:53:05;7.85;;;2.00;;
80381;SDS011;69692;55.820;37.490;2024-03-07T11:55:35;3.97;;;2.35;;
80381;SDS011;69692;55.820;37.490;2024-03-07T11:58:11;3.80;;;2.28;;
80381;SDS011;69692;55.820;37.490;2024-03-07T12:00:45;6.60;;;2.10;;
80381;SDS011;69692;55.820;37.490;2024-03-07T12:03:13;6.82;;;2.20;;
80381;SDS011;69692;55.820;37.490;2024-03-07T12:05:44;5.70;;;2.22;;
80381;SDS011;69692;55.820;37.490;2024-03-07T12:08:11;4.38;;;2.67;;
80381;SDS011;69692;55.820;37.490;2024-03-07T12:10:38;4.63;;;2.42;;
80381;SDS011;69692;55.820;37.490;2024-03-07T12:13:05;11.68;;;2.97;;
80381;SDS011;69692;55.820;37.490;2024-03-07T12:15:32;4.05;;;2.00;;
80381;SDS011;69692;55.820;37.490;2024-03-07T12:18:00;3.38;;;2.03;;
80381;SDS011;69692;55.820;37.490;2024-03-07T12:20:27;5.20;;;2.67;;
80381;SDS011;69692;55.820;37.490;2024-03-07T12:23:00;2.97;;;2.00;;
80381;SDS011;69692;55.820;37.490;2024-03-07T12:25:28;5.97;;;2.88;;
80381;SDS011;69692;55.820;37.490;2024-03-07T12:28:07;3.63;;;2.00;;
80381;SDS011;69692;55.820;37.490;2024-03-07T12:30:51;3.83;;;2.22;;
80381;SDS011;69692;55.820;37.490;2024-03-07T12:33:19;8.43;;;2.85;;
80381;SDS011;69692;55.820;37.490;2024-03-07T12:35:49;4.60;;;1.85;;
80381;SDS011;69692;55.820;37.490;2024-03-07T12:38:20;4.47;;;2.33;;
80381;SDS011;69692;55.820;37.490;2024-03-07T12:41:09;3.83;;;2.40;;
80381;SDS011;69692;55.820;37.490;2024-03-07T12:43:41;6.43;;;2.05;;
80381;SDS011;69692;55.820;37.490;2024-03-07T12:46:10;4.05;;;2.03;;
80381;SDS011;69692;55.820;37.490;2024-03-07T12:48:38;8.10;;;2.20;;
80381;SDS011;69692;55.820;37.490;2024-03-07T12:51:04;5.30;;;2.63;;
80381;SDS011;69692;55.820;37.490;2024-03-07T12:53:30;5.97;;;2.75;;
80381;SDS011;69692;55.820;37.490;2024-03-07T12:55:57;4.03;;;2.50;;
80381;SDS011;69692;55.820;37.490;2024-03-07T12:58:23;5.35;;;2.40;;
80381;SDS011;69692;55.820;37.490;2024-03-07T13:00:52;10.27;;;2.17;;
80381;SDS011;69692;55.820;37.490;2024-03-07T13:03:21;4.68;;;2.30;;
80381;SDS011;69692;55.820;37.490;2024-03-07T13:05:49;7.40;;;2.22;;
80381;SDS011;69692;55.820;37.490;2024-03-07T13:08:15;3.85;;;1.90;;
80381;SDS011;69692;55.820;37.490;2024-03-07T13:10:41;3.17;;;1.92;;
80381;SDS011;69692;55.820;37.490;2024-03-07T13:13:08;5.90;;;2.05;;
80381;SDS011;69692;55.820;37.490;2024-03-07T13:15:37;3.88;;;1.95;;
80381;SDS011;69692;55.820;37.490;2024-03-07T13:18:05;5.97;;;1.90;;
80381;SDS011;69692;55.820;37.490;2024-03-07T13:20:31;4.82;;;1.60;;
80381;SDS011;69692;55.820;37.490;2024-03-07T13:22:57;5.85;;;1.83;;
80381;SDS011;69692;55.820;37.490;2024-03-07T13:25:26;4.63;;;1.73;;
80381;SDS011;69692;55.820;37.490;2024-03-07T13:30:43;2.20;;;1.80;;
80381;SDS011;69692;55.820;37.490;2024-03-07T13:33:14;4.65;;;1.52;;
80381;SDS011;69692;55.820;37.490;2024-03-07T13:35:39;3.92;;;1.80;;
80381;SDS011;69692;55.820;37.490;2024-03-07T13:38:06;2.92;;;1.63;;
80381;SDS011;69692;55.820;37.490;2024-03-07T13:40:33;6.00;;;1.73;;
80381;SDS011;69692;55.820;37.490;2024-03-07T13:43:06;2.15;;;1.27;;
80381;SDS011;69692;55.820;37.490;2024-03-07T13:45:33;4.18;;;1.40;;
80381;SDS011;69692;55.820;37.490;2024-03-07T13:48:05;3.63;;;1.55;;
80381;SDS011;69692;55.820;37.490;2024-03-07T13:50:33;2.42;;;1.38;;
80381;SDS011;69692;55.820;37.490;2024-03-07T13:53:00;4.40;;;1.95;;
80381;SDS011;69692;55.820;37.490;2024-03-07T14:03:58;3.13;;;1.02;;
80381;SDS011;69692;55.820;37.490;2024-03-07T14:06:42;3.55;;;1.50;;
80381;SDS011;69692;55.820;37.490;2024-03-07T14:09:42;3.25;;;2.13;;
80381;SDS011;69692;55.820;37.490;2024-03-07T14:32:18;4.15;;;1.67;;
80381;SDS011;69692;55.820;37.490;2024-03-07T14:37:21;2.15;;;1.33;;
80381;SDS011;69692;55.820;37.490;2024-03-07T14:39:50;2.83;;;1.40;;
80381;SDS011;69692;55.820;37.490;2024-03-07T14:42:19;3.08;;;1.52;;
80381;SDS011;69692;55.820;37.490;2024-03-07T14:44:45;2.70;;;1.20;;
80381;SDS011;69692;55.820;37.490;2024-03-07T14:47:14;2.90;;;1.52;;
80381;SDS011;69692;55.820;37.490;2024-03-07T14:49:44;2.72;;;1.20;;
80381;SDS011;69692;55.820;37.490;2024-03-07T14:52:10;3.17;;;0.80;;
80381;SDS011;69692;55.820;37.490;2024-03-07T14:54:39;4.43;;;1.30;;
80381;SDS011;69692;55.820;37.490;2024-03-07T14:57:07;3.42;;;1.27;;
80381;SDS011;69692;55.820;37.490;2024-03-07T14:59:36;3.03;;;1.58;;
80381;SDS011;69692;55.820;37.490;2024-03-07T15:02:02;2.67;;;1.40;;
80381;SDS011;69692;55.820;37.490;2024-03-07T15:04:33;2.35;;;1.20;;
80381;SDS011;69692;55.820;37.490;2024-03-07T15:07:00;2.42;;;1.40;;
80381;SDS011;69692;55.820;37.490;2024-03-07T15:09:28;3.72;;;1.70;;
80381;SDS011;69692;55.820;37.490;2024-03-07T15:11:56;4.05;;;1.40;;
80381;SDS011;69692;55.820;37.490;2024-03-07T15:14:22;4.82;;;2.00;;
80381;SDS011;69692;55.820;37.490;2024-03-07T15:16:48;3.53;;;1.70;;
80381;SDS011;69692;55.820;37.490;2024-03-07T15:19:15;7.05;;;1.85;;
80381;SDS011;69692;55.820;37.490;2024-03-07T15:21:41;3.60;;;1.50;;
80381;SDS011;69692;55.820;37.490;2024-03-07T15:24:07;6.35;;;2.50;;